Time;durP1;ratioP1;P1;durP2;ratioP2;P2;SDS_P1;SDS_P2;PMS_P1;PMS_P2;Temp;Humidity;BMP_temperature;BMP_pressure;BME280_temperature;BME280_humidity;BME280_pressure;Samples;Min_cycle;Max_cycle;Signal;HPM_P1;HPM_P2
2022/01/09 00:01:46;;;;;;;4.63;3.13;;;-0.10;99.90;;;;;;5081743;28;20048;-80
2022/01/09 00:04:17;;;;;;;3.60;2.23;;;-0.20;99.90;;;;;;5079367;28;20044;-87
2022/01/09 00:06:43;;;;;;;3.83;3.07;;;-0.20;99.90;;;;;;5079029;28;20041;-79
2022/01/09 00:09:11;;;;;;;2.70;2.50;;;-0.20;99.90;;;;;;5079877;28;20443;-81
2022/01/09 00:11:39;;;;;;;2.70;2.40;;;-0.20;99.90;;;;;;5080807;28;20036;-80
2022/01/09 00:14:06;;;;;;;3.10;2.80;;;-0.20;99.90;;;;;;5080139;28;20389;-81
2022/01/09 00:16:32;;;;;;;2.97;1.53;;;-0.30;99.90;;;;;;5080908;28;20074;-82
2022/01/09 00:18:59;;;;;;;4.03;3.73;;;-0.30;99.90;;;;;;5081508;28;20052;-81
2022/01/09 00:21:26;;;;;;;4.57;4.17;;;-0.30;99.90;;;;;;5080802;28;20049;-82
2022/01/09 00:23:52;;;;;;;4.97;4.17;;;-0.30;99.90;;;;;;5080388;28;20049;-80
2022/01/09 00:26:19;;;;;;;1.50;1.40;;;-0.30;99.90;;;;;;5079498;28;20057;-81
2022/01/09 00:28:48;;;;;;;3.10;2.67;;;-0.30;99.90;;;;;;5080554;28;20041;-81
2022/01/09 00:31:15;;;;;;;4.37;1.57;;;-0.30;99.90;;;;;;5079624;28;20048;-80
2022/01/09 00:33:41;;;;;;;3.00;2.67;;;-0.30;99.90;;;;;;5080214;28;20459;-81
2022/01/09 00:36:08;;;;;;;6.63;3.43;;;-0.30;99.90;;;;;;5080017;28;20094;-82
2022/01/09 00:38:35;;;;;;;8.50;2.63;;;-0.30;99.90;;;;;;5080717;28;20102;-81
2022/01/09 00:41:02;;;;;;;2.20;2.10;;;-0.40;99.90;;;;;;5081025;28;20485;-81
2022/01/09 00:43:30;;;;;;;4.23;3.00;;;-0.40;99.90;;;;;;5080635;28;20041;-81
2022/01/09 00:45:59;;;;;;;4.47;3.37;;;-0.40;99.90;;;;;;5080579;28;20471;-83
2022/01/09 00:48:27;;;;;;;4.60;4.03;;;-0.40;99.90;;;;;;5081862;28;20045;-80
2022/01/09 00:50:54;;;;;;;3.33;2.30;;;-0.40;99.90;;;;;;5078891;28;20048;-80
2022/01/09 00:53:21;;;;;;;11.77;4.90;;;-0.40;99.90;;;;;;5080118;28;20071;-80
2022/01/09 00:55:48;;;;;;;4.23;3.73;;;-0.40;99.90;;;;;;5079903;28;20048;-80
2022/01/09 00:58:14;;;;;;;4.50;3.20;;;-0.40;99.90;;;;;;5079343;28;20516;-80
2022/01/09 01:00:41;;;;;;;4.53;2.67;;;-0.50;99.90;;;;;;5079237;28;20049;-81
2022/01/09 01:03:09;;;;;;;5.47;4.53;;;-0.50;99.90;;;;;;5078179;28;20048;-82
2022/01/09 01:05:36;;;;;;;3.40;3.10;;;-0.50;99.90;;;;;;5077063;28;20106;-81
2022/01/09 01:08:05;;;;;;;6.07;2.33;;;-0.50;99.90;;;;;;5076970;28;20458;-80
2022/01/09 01:10:32;;;;;;;5.07;4.60;;;-0.60;99.90;;;;;;5076981;28;20488;-81
2022/01/09 01:12:58;;;;;;;5.33;2.97;;;-0.60;99.90;;;;;;5077580;28;20052;-82
2022/01/09 01:15:25;;;;;;;3.63;3.37;;;-0.60;99.90;;;;;;5076593;28;20619;-82
2022/01/09 01:17:53;;;;;;;4.80;3.37;;;-0.50;99.90;;;;;;5076595;28;20497;-82
2022/01/09 01:20:23;;;;;;;3.97;3.00;;;-0.60;99.90;;;;;;5076832;28;20151;-80
2022/01/09 01:22:53;;;;;;;1.93;1.83;;;-0.60;99.90;;;;;;5077389;28;20437;-80
2022/01/09 01:25:22;;;;;;;3.13;2.23;;;-0.60;99.90;;;;;;5076967;28;20079;-82
2022/01/09 01:27:49;;;;;;;2.87;2.57;;;-0.60;99.90;;;;;;5077260;28;20044;-81
2022/01/09 01:30:18;;;;;;;3.67;2.50;;;-0.60;99.90;;;;;;5078692;28;20052;-80
2022/01/09 01:32:45;;;;;;;2.43;1.73;;;-0.60;99.90;;;;;;5078227;28;20041;-79
2022/01/09 01:35:13;;;;;;;4.80;3.47;;;-0.60;99.90;;;;;;5079078;28;20048;-82
2022/01/09 01:37:45;;;;;;;9.73;3.43;;;-0.70;99.90;;;;;;5079887;28;20059;-79
2022/01/09 01:40:17;;;;;;;4.37;2.00;;;-0.60;99.90;;;;;;5084392;28;20055;-81
2022/01/09 01:42:46;;;;;;;4.82;3.92;;;-0.60;99.90;;;;;;5083863;28;20041;-79
2022/01/09 01:45:14;;;;;;;1.37;1.27;;;-0.60;99.90;;;;;;5093688;28;20028;-79
2022/01/09 01:47:41;;;;;;;2.90;2.60;;;-0.60;99.90;;;;;;5096250;28;20210;-78
2022/01/09 01:50:11;;;;;;;1.13;1.10;;;-0.70;99.90;;;;;;5096426;28;20104;-79
2022/01/09 01:52:42;;;;;;;3.33;2.47;;;-0.70;99.90;;;;;;5095792;28;20025;-80
2022/01/09 01:55:13;;;;;;;3.10;2.70;;;-0.60;99.90;;;;;;5091022;28;20091;-79
2022/01/09 01:57:41;;;;;;;6.97;4.63;;;-0.70;99.90;;;;;;5087868;28;20289;-81
2022/01/09 02:00:11;;;;;;;3.47;3.10;;;-0.70;99.90;;;;;;5083324;28;20394;-84
2022/01/09 02:02:37;;;;;;;3.03;2.63;;;-0.70;99.90;;;;;;5077340;28;20071;-83
2022/01/09 02:05:06;;;;;;;3.87;2.47;;;-0.70;99.90;;;;;;5076296;28;20052;-81
2022/01/09 02:07:33;;;;;;;3.50;3.23;;;-0.70;99.90;;;;;;5076383;28;20100;-80
2022/01/09 02:10:00;;;;;;;4.33;3.57;;;-0.70;99.90;;;;;;5077154;28;20048;-82
2022/01/09 02:12:29;;;;;;;6.30;3.40;;;-0.70;99.90;;;;;;5077200;28;20064;-81
2022/01/09 02:14:56;;;;;;;4.67;3.53;;;-0.70;99.90;;;;;;5077002;28;20055;-81
2022/01/09 02:17:23;;;;;;;3.43;3.30;;;-0.70;99.90;;;;;;5076813;28;20063;-83
2022/01/09 02:19:53;;;;;;;3.90;3.00;;;-0.70;99.90;;;;;;5078814;28;20049;-81
2022/01/09 02:22:19;;;;;;;3.53;2.00;;;-0.80;99.90;;;;;;5080530;28;20079;-81
2022/01/09 02:24:47;;;;;;;6.83;3.13;;;-0.70;99.90;;;;;;5080627;28;20045;-80
2022/01/09 02:27:15;;;;;;;3.87;2.77;;;-0.70;99.90;;;;;;5080705;28;20407;-80
2022/01/09 02:29:42;;;;;;;7.20;2.77;;;-0.70;99.90;;;;;;5080820;28;20052;-79
2022/01/09 02:32:09;;;;;;;7.47;3.87;;;-0.80;99.90;;;;;;5078514;28;20119;-79
2022/01/09 02:34:35;;;;;;;5.90;3.77;;;-0.80;99.90;;;;;;5078566;28;20053;-79
2022/01/09 02:37:03;;;;;;;3.67;2.53;;;-0.80;99.90;;;;;;5079035;28;20048;-79
2022/01/09 02:39:30;;;;;;;5.20;4.70;;;-0.80;99.90;;;;;;5079456;28;20424;-82
2022/01/09 02:41:57;;;;;;;4.70;3.17;;;-0.70;99.90;;;;;;5078647;28;20055;-80
2022/01/09 02:44:24;;;;;;;1.63;1.53;;;-0.70;99.90;;;;;;5079414;28;20067;-79
2022/01/09 02:47:00;;;;;;;6.43;2.63;;;-0.80;99.90;;;;;;5079018;28;20054;-81
2022/01/09 02:49:28;;;;;;;3.60;3.30;;;-0.80;99.90;;;;;;5079156;28;20044;-84
2022/01/09 02:51:55;;;;;;;4.13;3.73;;;-0.80;99.90;;;;;;5078901;28;20419;-80
2022/01/09 02:57:10;;;;;;;2.93;2.73;;;-0.80;99.90;;;;;;5077450;28;20052;-79
2022/01/09 02:59:37;;;;;;;4.00;3.60;;;-0.80;99.90;;;;;;5077849;28;20070;-79
2022/01/09 03:02:04;;;;;;;5.77;3.57;;;-0.80;99.90;;;;;;5077883;28;20040;-79
2022/01/09 03:04:30;;;;;;;5.50;3.20;;;-0.80;99.90;;;;;;5077319;28;20488;-79
2022/01/09 03:06:57;;;;;;;3.47;2.67;;;-0.80;99.90;;;;;;5077925;28;20049;-79
2022/01/09 03:09:25;;;;;;;2.53;2.33;;;-0.80;99.90;;;;;;5078484;28;20071;-81
2022/01/09 03:11:51;;;;;;;3.67;2.37;;;-0.80;99.90;;;;;;5078641;28;20044;-80
2022/01/09 03:14:18;;;;;;;3.23;2.00;;;-0.80;99.90;;;;;;5078373;28;20088;-80
2022/01/09 03:16:45;;;;;;;2.43;2.33;;;-0.80;99.90;;;;;;5078505;28;20178;-79
2022/01/09 03:19:11;;;;;;;3.30;2.20;;;-0.70;99.90;;;;;;5078577;28;20464;-80
2022/01/09 03:21:38;;;;;;;4.40;4.00;;;-0.70;99.90;;;;;;5079013;28;20090;-80
2022/01/09 03:24:05;;;;;;;2.83;1.80;;;-0.70;99.90;;;;;;5078270;28;20412;-77
2022/01/09 03:26:33;;;;;;;9.23;2.97;;;-0.70;99.90;;;;;;5078088;28;20470;-78
2022/01/09 03:29:00;;;;;;;7.57;4.73;;;-0.70;99.90;;;;;;5078516;28;20386;-79
2022/01/09 03:31:26;;;;;;;3.10;2.43;;;-0.70;99.90;;;;;;5077452;28;20052;-80
2022/01/09 03:33:53;;;;;;;6.17;2.93;;;-0.70;99.90;;;;;;5079227;28;20045;-80
2022/01/09 03:36:20;;;;;;;3.87;3.57;;;-0.70;99.90;;;;;;5078467;28;20070;-79
2022/01/09 03:38:46;;;;;;;4.47;2.53;;;-0.70;99.90;;;;;;5078759;28;20133;-79
2022/01/09 03:41:13;;;;;;;4.37;3.33;;;-0.70;99.90;;;;;;5077926;28;20110;-82
2022/01/09 03:43:41;;;;;;;7.40;4.03;;;-0.80;99.90;;;;;;5078170;28;20048;-78
2022/01/09 03:46:08;;;;;;;2.47;1.40;;;-0.80;99.90;;;;;;5077480;28;20071;-78
2022/01/09 03:48:34;;;;;;;4.60;2.73;;;-0.70;99.90;;;;;;5077709;28;20463;-79
2022/01/09 03:51:02;;;;;;;4.10;1.57;;;-0.70;99.90;;;;;;5077994;28;20451;-79
2022/01/09 03:53:30;;;;;;;4.53;2.37;;;-0.70;99.90;;;;;;5078518;28;20059;-80
2022/01/09 03:55:58;;;;;;;5.43;3.13;;;-0.70;99.90;;;;;;5078000;28;20049;-80
2022/01/09 03:58:25;;;;;;;1.50;1.30;;;-0.70;99.90;;;;;;5077339;28;20507;-80
2022/01/09 04:00:53;;;;;;;3.70;3.20;;;-0.70;99.90;;;;;;5078225;28;20055;-81
2022/01/09 04:03:20;;;;;;;2.47;2.27;;;-0.70;99.90;;;;;;5078382;28;20048;-81
2022/01/09 04:05:46;;;;;;;4.87;3.43;;;-0.70;99.90;;;;;;5077410;28;20075;-79
2022/01/09 04:08:13;;;;;;;4.50;2.60;;;-0.70;99.90;;;;;;5078647;28;20052;-79
2022/01/09 04:10:42;;;;;;;2.43;2.23;;;-0.70;99.90;;;;;;5078354;28;20052;-80
2022/01/09 04:13:11;;;;;;;3.77;2.37;;;-0.70;99.90;;;;;;5078218;28;20052;-78
2022/01/09 04:15:45;;;;;;;2.00;1.83;;;-0.70;99.90;;;;;;5076835;28;20048;-79
2022/01/09 04:18:14;;;;;;;4.47;4.07;;;-0.70;99.90;;;;;;5077243;28;20040;-79
2022/01/09 04:20:40;;;;;;;6.50;2.57;;;-0.70;99.90;;;;;;5076316;28;20052;-77
2022/01/09 04:23:07;;;;;;;7.13;2.20;;;-0.70;99.90;;;;;;5075628;28;20101;-79
2022/01/09 04:25:34;;;;;;;5.63;2.70;;;-0.70;99.90;;;;;;5075760;28;20037;-78
2022/01/09 04:28:00;;;;;;;2.93;2.63;;;-0.70;99.90;;;;;;5075283;28;20520;-79
2022/01/09 04:30:27;;;;;;;2.27;2.07;;;-0.70;99.90;;;;;;5076988;28;20193;-78
2022/01/09 04:32:53;;;;;;;2.77;2.30;;;-0.70;99.90;;;;;;5077457;28;20143;-81
2022/01/09 04:35:21;;;;;;;2.97;2.43;;;-0.70;99.90;;;;;;5077919;28;20041;-79
2022/01/09 04:37:49;;;;;;;3.90;3.60;;;-0.70;99.90;;;;;;5077252;28;20045;-80
2022/01/09 04:40:18;;;;;;;4.93;3.27;;;-0.70;99.90;;;;;;5078335;28;20048;-79
2022/01/09 04:42:47;;;;;;;6.00;3.57;;;-0.70;99.90;;;;;;5078616;28;20044;-79
2022/01/09 04:45:15;;;;;;;4.00;2.47;;;-0.70;99.90;;;;;;5079051;28;20053;-79
2022/01/09 04:47:44;;;;;;;5.90;3.57;;;-0.70;99.90;;;;;;5077963;28;20558;-79
2022/01/09 04:50:16;;;;;;;2.60;2.37;;;-0.70;99.90;;;;;;5078234;28;20044;-81
2022/01/09 04:52:44;;;;;;;7.78;4.30;;;-0.70;99.90;;;;;;5078940;28;20054;-82
2022/01/09 04:55:12;;;;;;;4.07;2.60;;;-0.70;99.90;;;;;;5078395;28;20105;-81
2022/01/09 04:57:38;;;;;;;4.27;2.27;;;-0.70;99.90;;;;;;5078073;28;20055;-82
2022/01/09 05:00:07;;;;;;;6.67;3.60;;;-0.70;99.90;;;;;;5077090;28;20106;-79
2022/01/09 05:02:34;;;;;;;5.40;3.30;;;-0.70;99.90;;;;;;5076309;28;20098;-82
2022/01/09 05:05:00;;;;;;;5.87;4.27;;;-0.70;99.90;;;;;;5076641;28;20041;-82
2022/01/09 05:07:27;;;;;;;3.83;2.90;;;-0.70;99.90;;;;;;5077528;28;20074;-81
2022/01/09 05:09:55;;;;;;;3.73;2.40;;;-0.70;99.90;;;;;;5077109;28;20052;-82
2022/01/09 05:12:22;;;;;;;5.83;4.13;;;-0.60;99.90;;;;;;5077642;28;20044;-81
2022/01/09 05:14:49;;;;;;;1.80;1.70;;;-0.70;99.90;;;;;;5076842;28;20455;-82
2022/01/09 05:17:15;;;;;;;1.33;1.23;;;-0.60;99.90;;;;;;5077152;28;20044;-81
2022/01/09 05:19:43;;;;;;;3.63;3.33;;;-0.60;99.90;;;;;;5076742;28;20045;-79
2022/01/09 05:22:09;;;;;;;7.37;3.83;;;-0.60;99.90;;;;;;5076796;28;20044;-79
2022/01/09 05:24:36;;;;;;;5.20;4.70;;;-0.60;99.90;;;;;;5075922;28;20041;-79
2022/01/09 05:27:05;;;;;;;5.40;2.83;;;-0.70;99.90;;;;;;5076365;28;20090;-79
2022/01/09 05:29:31;;;;;;;3.27;2.77;;;-0.60;99.90;;;;;;5076146;28;20500;-79
2022/01/09 05:31:58;;;;;;;3.57;3.20;;;-0.60;99.90;;;;;;5076813;28;20070;-83
2022/01/09 05:34:25;;;;;;;2.97;2.80;;;-0.60;99.90;;;;;;5075557;28;20126;-80
2022/01/09 05:36:51;;;;;;;6.77;2.63;;;-0.60;99.90;;;;;;5075992;28;20096;-81
2022/01/09 05:39:19;;;;;;;4.90;3.20;;;-0.60;99.90;;;;;;5076667;28;20398;-82
2022/01/09 05:41:46;;;;;;;1.20;1.20;;;-0.60;99.90;;;;;;5076528;28;20052;-81
2022/01/09 05:44:17;;;;;;;3.60;1.83;;;-0.50;99.90;;;;;;5075811;28;20040;-82
2022/01/09 05:46:43;;;;;;;8.20;4.60;;;-0.50;99.90;;;;;;5076431;28;20049;-82
2022/01/09 05:49:10;;;;;;;2.83;2.63;;;-0.50;99.90;;;;;;5076638;28;20048;-80
2022/01/09 05:51:37;;;;;;;5.47;4.13;;;-0.50;99.90;;;;;;5075257;28;20049;-78
2022/01/09 05:54:03;;;;;;;5.47;2.47;;;-0.40;99.90;;;;;;5074138;28;20044;-79
2022/01/09 05:56:30;;;;;;;4.60;2.30;;;-0.40;99.90;;;;;;5075119;28;20500;-79
2022/01/09 05:58:57;;;;;;;4.17;3.47;;;-0.40;99.90;;;;;;5075582;28;20065;-80
2022/01/09 06:01:25;;;;;;;3.57;2.47;;;-0.40;99.90;;;;;;5075859;28;20442;-80
2022/01/09 06:03:51;;;;;;;4.10;3.80;;;-0.40;99.90;;;;;;5076628;28;20044;-82
2022/01/09 06:06:18;;;;;;;2.50;2.33;;;-0.40;99.90;;;;;;5076319;28;20471;-81
2022/01/09 06:08:45;;;;;;;5.03;2.93;;;-0.30;99.90;;;;;;5077533;28;20470;-84
2022/01/09 06:11:12;;;;;;;3.63;2.87;;;-0.30;99.90;;;;;;5076701;28;20151;-81
2022/01/09 06:13:39;;;;;;;4.70;3.57;;;-0.30;99.90;;;;;;5076840;28;20044;-83
2022/01/09 06:16:05;;;;;;;3.30;2.27;;;-0.30;99.90;;;;;;5076209;28;20045;-82
2022/01/09 06:18:34;;;;;;;2.97;2.67;;;-0.30;99.90;;;;;;5076712;28;20045;-81
2022/01/09 06:21:00;;;;;;;3.97;3.33;;;-0.30;99.90;;;;;;5076266;28;20432;-82
2022/01/09 06:23:27;;;;;;;8.80;4.07;;;-0.20;99.90;;;;;;5075803;28;20041;-80
2022/01/09 06:25:54;;;;;;;5.40;2.90;;;-0.20;99.90;;;;;;5075030;28;20098;-79
2022/01/09 06:28:21;;;;;;;3.37;3.07;;;-0.20;99.90;;;;;;5075347;28;20122;-80
2022/01/09 06:30:48;;;;;;;4.17;3.87;;;-0.20;99.90;;;;;;5074424;28;20049;-79
2022/01/09 06:33:15;;;;;;;5.23;2.40;;;-0.20;99.90;;;;;;5074371;28;20110;-84
2022/01/09 06:35:44;;;;;;;2.57;2.37;;;-0.20;99.90;;;;;;5073784;28;20110;-81
2022/01/09 06:38:11;;;;;;;4.70;3.83;;;-0.20;99.90;;;;;;5074327;28;20131;-80
2022/01/09 06:40:38;;;;;;;5.10;3.30;;;-0.20;99.90;;;;;;5074236;28;20052;-77
2022/01/09 06:43:05;;;;;;;8.00;5.03;;;-0.20;99.90;;;;;;5074898;28;20041;-79
2022/01/09 06:45:31;;;;;;;4.57;2.30;;;-0.20;99.90;;;;;;5073545;28;20059;-79
2022/01/09 06:47:59;;;;;;;4.23;2.97;;;-0.20;99.90;;;;;;5074577;28;20048;-78
2022/01/09 06:50:27;;;;;;;4.93;2.97;;;-0.20;99.90;;;;;;5075690;28;20470;-81
2022/01/09 06:52:55;;;;;;;3.03;2.07;;;-0.20;99.90;;;;;;5076533;28;20044;-81
2022/01/09 06:55:22;;;;;;;3.00;2.80;;;-0.20;99.90;;;;;;5075840;28;20070;-78
2022/01/09 06:57:49;;;;;;;4.40;3.67;;;-0.10;99.90;;;;;;5076037;28;20094;-78
2022/01/09 07:00:17;;;;;;;6.27;4.30;;;-0.10;99.90;;;;;;5072964;28;20044;-77
2022/01/09 07:02:44;;;;;;;4.93;2.77;;;-0.20;99.90;;;;;;5073673;28;20493;-79
2022/01/09 07:05:11;;;;;;;5.17;2.57;;;-0.10;99.90;;;;;;5074637;28;20045;-78
2022/01/09 07:07:42;;;;;;;4.00;3.47;;;-0.10;99.90;;;;;;5080182;28;20094;-84
2022/01/09 07:10:12;;;;;;;3.63;2.63;;;-0.10;99.90;;;;;;5082811;28;20052;-81
2022/01/09 07:12:39;;;;;;;3.23;2.93;;;-0.10;99.90;;;;;;5081132;28;20057;-83
2022/01/09 07:15:06;;;;;;;3.80;2.90;;;-0.10;99.90;;;;;;5078817;28;20397;-80
2022/01/09 07:17:33;;;;;;;6.53;2.47;;;-0.10;99.90;;;;;;5078800;28;20045;-81
2022/01/09 07:20:00;;;;;;;2.80;2.03;;;-0.10;99.90;;;;;;5079257;28;20041;-81
2022/01/09 07:22:27;;;;;;;2.53;1.47;;;-0.20;99.90;;;;;;5080430;28;20045;-85
2022/01/09 07:24:54;;;;;;;4.70;3.67;;;-0.20;99.90;;;;;;5080412;28;20049;-85
2022/01/09 07:27:22;;;;;;;9.83;4.40;;;-0.20;99.90;;;;;;5078995;28;20053;-78
2022/01/09 07:29:48;;;;;;;3.73;2.93;;;-0.20;99.90;;;;;;5076501;28;20072;-76
2022/01/09 07:32:15;;;;;;;2.53;2.00;;;-0.10;99.90;;;;;;5075219;28;20234;-75
2022/01/09 07:34:42;;;;;;;4.00;3.20;;;-0.10;99.90;;;;;;5074755;28;20049;-75
2022/01/09 07:37:08;;;;;;;4.83;3.13;;;-0.10;99.90;;;;;;5074745;28;20052;-77
2022/01/09 07:39:35;;;;;;;5.67;4.73;;;0.00;99.90;;;;;;5077811;28;20458;-75
2022/01/09 07:42:02;;;;;;;3.13;2.80;;;0.00;99.90;;;;;;5079256;28;20501;-76
2022/01/09 07:44:30;;;;;;;1.93;1.70;;;0.00;99.90;;;;;;5088067;28;20044;-76
2022/01/09 07:46:56;;;;;;;3.60;3.30;;;0.00;99.90;;;;;;5077382;28;20113;-76
2022/01/09 07:49:23;;;;;;;2.27;2.07;;;0.10;99.90;;;;;;5076870;28;20052;-80
2022/01/09 07:51:50;;;;;;;6.20;2.37;;;0.10;99.90;;;;;;5080655;28;20055;-79
2022/01/09 07:54:17;;;;;;;4.00;3.33;;;0.10;99.90;;;;;;5078892;28;20048;-82
2022/01/09 07:56:44;;;;;;;6.87;3.03;;;0.10;99.90;;;;;;5077845;28;20106;-79
2022/01/09 07:59:10;;;;;;;3.10;1.93;;;0.10;99.90;;;;;;5076054;28;20048;-78
2022/01/09 08:01:38;;;;;;;4.83;2.63;;;0.20;99.90;;;;;;5075711;28;20045;-76
2022/01/09 08:04:05;;;;;;;3.70;3.30;;;0.20;99.90;;;;;;5075358;28;20110;-79
2022/01/09 08:06:32;;;;;;;5.37;3.30;;;0.30;99.90;;;;;;5074827;28;20040;-79
2022/01/09 08:08:59;;;;;;;4.73;3.10;;;0.30;99.90;;;;;;5074548;28;20439;-74
2022/01/09 08:11:25;;;;;;;3.10;2.30;;;0.40;99.90;;;;;;5074302;28;20439;-75
2022/01/09 08:13:52;;;;;;;1.70;1.30;;;0.40;99.90;;;;;;5074585;28;20405;-75
2022/01/09 08:16:19;;;;;;;4.93;3.27;;;0.50;99.90;;;;;;5074433;28;20044;-81
2022/01/09 08:18:50;;;;;;;3.80;3.27;;;0.40;99.90;;;;;;5077497;28;20052;-80
2022/01/09 08:21:20;;;;;;;6.88;4.40;;;0.50;99.90;;;;;;5079297;28;20044;-83
2022/01/09 08:23:47;;;;;;;2.20;2.00;;;0.50;99.90;;;;;;5077612;28;20503;-78
2022/01/09 08:26:13;;;;;;;4.07;2.30;;;0.50;99.90;;;;;;5075396;28;20055;-76
2022/01/09 08:28:44;;;;;;;5.10;4.53;;;0.60;99.90;;;;;;5075584;28;20554;-77
2022/01/09 08:31:11;;;;;;;2.43;2.23;;;0.60;99.90;;;;;;5075806;28;20052;-79
2022/01/09 08:33:38;;;;;;;1.17;1.17;;;0.60;99.90;;;;;;5076923;28;20556;-80
2022/01/09 08:36:06;;;;;;;3.10;2.23;;;0.70;99.90;;;;;;5076648;28;20512;-78
2022/01/09 08:38:33;;;;;;;3.87;2.50;;;0.70;99.90;;;;;;5076128;28;20052;-77
2022/01/09 08:41:00;;;;;;;2.93;2.63;;;0.70;99.90;;;;;;5075178;28;20045;-77
2022/01/09 08:43:27;;;;;;;2.13;1.80;;;0.70;99.90;;;;;;5078299;28;20456;-82
2022/01/09 08:45:53;;;;;;;4.63;1.77;;;0.80;99.90;;;;;;5074414;28;20565;-77
2022/01/09 08:48:23;;;;;;;3.03;2.43;;;0.80;99.90;;;;;;5073848;28;20177;-75
2022/01/09 08:50:49;;;;;;;3.50;2.90;;;0.80;99.90;;;;;;5073702;28;20113;-75
2022/01/09 08:53:17;;;;;;;2.43;2.13;;;0.90;99.90;;;;;;5081982;28;20052;-79
2022/01/09 08:55:44;;;;;;;6.07;2.47;;;0.90;99.90;;;;;;5076567;28;20751;-77
2022/01/09 08:58:11;;;;;;;3.20;2.17;;;0.90;99.90;;;;;;5076175;28;20082;-78
2022/01/09 09:00:37;;;;;;;4.33;2.70;;;1.00;99.90;;;;;;5077117;28;20049;-78
2022/01/09 09:03:05;;;;;;;1.70;1.50;;;1.10;99.90;;;;;;5079706;28;20090;-78
2022/01/09 09:05:32;;;;;;;3.27;2.40;;;1.10;99.90;;;;;;5076383;28;20129;-76
2022/01/09 09:07:59;;;;;;;5.13;3.33;;;1.10;99.90;;;;;;5073721;28;20048;-77
2022/01/09 09:10:27;;;;;;;6.67;2.33;;;1.20;99.90;;;;;;5073234;28;20056;-77
2022/01/09 09:12:54;;;;;;;1.47;1.37;;;1.20;99.90;;;;;;5073163;28;20098;-79
2022/01/09 09:15:22;;;;;;;2.70;2.43;;;1.20;99.90;;;;;;5073848;28;20135;-77
2022/01/09 09:17:51;;;;;;;4.00;2.63;;;1.20;99.90;;;;;;5073439;28;20044;-75
2022/01/09 09:20:18;;;;;;;4.43;2.27;;;1.20;99.90;;;;;;5073665;28;20146;-76
2022/01/09 09:22:44;;;;;;;4.60;3.00;;;1.30;99.90;;;;;;5073257;28;20090;-76
2022/01/09 09:25:12;;;;;;;2.57;2.33;;;1.30;99.90;;;;;;5072478;28;20048;-75
2022/01/09 09:27:40;;;;;;;1.97;1.47;;;1.40;99.90;;;;;;5072541;28;20084;-77
2022/01/09 09:30:08;;;;;;;4.27;1.83;;;1.40;99.90;;;;;;5072759;28;20524;-76
2022/01/09 09:32:35;;;;;;;4.60;2.47;;;1.40;99.90;;;;;;5073747;28;20045;-76
2022/01/09 09:35:03;;;;;;;2.07;1.97;;;1.40;99.90;;;;;;5073260;28;20047;-76
2022/01/09 09:37:30;;;;;;;5.80;3.43;;;1.50;99.90;;;;;;5073732;28;20040;-76
2022/01/09 09:39:57;;;;;;;1.60;1.43;;;1.50;99.90;;;;;;5073588;28;20057;-75
2022/01/09 09:42:27;;;;;;;4.60;2.10;;;1.50;99.90;;;;;;5073271;28;20508;-76
2022/01/09 09:45:00;;;;;;;4.50;2.17;;;1.50;99.90;;;;;;5072665;28;20048;-77
2022/01/09 09:47:28;;;;;;;4.17;2.37;;;1.50;99.90;;;;;;5072963;28;20072;-77
2022/01/09 09:49:54;;;;;;;2.13;1.97;;;1.50;99.90;;;;;;5072814;28;20053;-76
2022/01/09 09:52:21;;;;;;;2.40;1.77;;;1.50;99.90;;;;;;5072783;28;20048;-77
2022/01/09 09:54:49;;;;;;;3.00;1.73;;;1.50;99.90;;;;;;5074730;28;20044;-76
2022/01/09 09:57:16;;;;;;;6.10;2.40;;;1.60;99.90;;;;;;5074422;28;20056;-75
2022/01/09 09:59:46;;;;;;;1.60;1.50;;;1.60;99.90;;;;;;5074685;28;20045;-75
2022/01/09 10:02:15;;;;;;;5.93;2.70;;;1.60;99.90;;;;;;5074670;28;20382;-75
2022/01/09 10:04:58;;;;;;;1.93;1.47;;;1.60;99.90;;;;;;5073938;28;20051;-76
2022/01/09 10:07:25;;;;;;;1.87;1.60;;;1.70;99.90;;;;;;5074550;28;20044;-77
2022/01/09 10:09:54;;;;;;;3.07;1.90;;;1.70;99.90;;;;;;5080444;28;20056;-76
2022/01/09 10:12:25;;;;;;;1.93;1.67;;;1.70;99.90;;;;;;5075947;28;20072;-76
2022/01/09 10:14:55;;;;;;;1.38;1.13;;;1.70;99.90;;;;;;5073916;28;20048;-76
2022/01/09 10:17:24;;;;;;;3.23;2.50;;;1.80;99.90;;;;;;5073620;28;20135;-76
2022/01/09 10:19:53;;;;;;;2.97;2.63;;;1.80;99.90;;;;;;5073081;28;20440;-76
2022/01/09 10:22:25;;;;;;;3.73;3.43;;;1.80;99.90;;;;;;5072745;28;20055;-77
2022/01/09 10:24:52;;;;;;;1.70;1.60;;;1.90;99.90;;;;;;5071820;28;20040;-76
2022/01/09 10:27:29;;;;;;;2.80;2.40;;;1.90;99.90;;;;;;5072209;28;20040;-77
2022/01/09 10:29:57;;;;;;;2.20;1.90;;;1.90;99.90;;;;;;5072485;28;20489;-75
2022/01/09 10:32:28;;;;;;;4.60;2.40;;;1.90;99.90;;;;;;5072507;28;20040;-76
2022/01/09 10:35:06;;;;;;;3.42;2.30;;;2.00;99.90;;;;;;5071920;28;20140;-76
2022/01/09 10:37:33;;;;;;;3.47;2.03;;;2.00;99.90;;;;;;5072348;28;20045;-76
2022/01/09 10:40:00;;;;;;;3.37;2.20;;;2.10;99.90;;;;;;5073799;28;20044;-76
2022/01/09 10:42:27;;;;;;;1.40;1.30;;;2.20;99.90;;;;;;5077193;28;20079;-77
2022/01/09 10:44:54;;;;;;;2.30;1.77;;;2.20;99.90;;;;;;5076445;28;20055;-76
2022/01/09 10:47:21;;;;;;;2.47;2.27;;;2.20;99.90;;;;;;5076300;28;20071;-75
2022/01/09 10:49:51;;;;;;;2.13;1.10;;;2.30;99.90;;;;;;5076495;28;20056;-75
2022/01/09 10:52:24;;;;;;;4.00;2.87;;;2.30;99.90;;;;;;5077375;28;20110;-76
2022/01/09 10:54:54;;;;;;;2.67;2.43;;;2.40;99.90;;;;;;5075633;28;20045;-76
2022/01/09 10:57:23;;;;;;;2.53;1.67;;;2.60;99.90;;;;;;5076872;28;20040;-75
2022/01/09 10:59:55;;;;;;;1.70;1.60;;;2.70;99.90;;;;;;5076979;28;20056;-76
2022/01/09 11:02:22;;;;;;;4.83;2.83;;;2.60;99.90;;;;;;5077233;28;20056;-77
2022/01/09 11:04:50;;;;;;;2.80;2.43;;;2.50;99.90;;;;;;5076026;28;20049;-76
2022/01/09 11:07:17;;;;;;;4.03;2.70;;;2.50;99.90;;;;;;5076683;28;20121;-76
2022/01/09 11:09:48;;;;;;;2.67;2.13;;;2.60;99.90;;;;;;5076319;28;20060;-77
2022/01/09 11:12:19;;;;;;;2.92;2.67;;;2.70;99.90;;;;;;5076168;28;20087;-76
2022/01/09 11:14:48;;;;;;;1.70;1.48;;;2.80;99.90;;;;;;5075702;28;20505;-76
2022/01/09 11:17:17;;;;;;;3.00;2.20;;;2.70;99.90;;;;;;5075962;28;20045;-75
2022/01/09 11:19:44;;;;;;;2.87;1.80;;;2.70;99.90;;;;;;5078600;28;20130;-76
2022/01/09 11:22:12;;;;;;;3.97;2.00;;;2.70;99.90;;;;;;5079043;28;20045;-76
2022/01/09 11:25:03;;;;;;;2.43;2.23;;;2.80;99.90;;;;;;5079782;28;20044;-77
2022/01/09 11:27:47;;;;;;;5.85;2.85;;;2.90;99.90;;;;;;5078276;28;20051;-76
2022/01/09 11:30:20;;;;;;;2.30;2.10;;;2.90;99.90;;;;;;5075636;28;20067;-76
2022/01/09 11:32:56;;;;;;;1.83;1.70;;;2.90;99.90;;;;;;5076329;28;20136;-76
2022/01/09 11:35:32;;;;;;;2.97;2.07;;;2.90;99.90;;;;;;5075177;28;20049;-76
2022/01/09 11:38:11;;;;;;;2.07;1.77;;;3.00;99.90;;;;;;5080114;28;20056;-75
2022/01/09 11:40:39;;;;;;;2.03;1.83;;;3.00;99.90;;;;;;5079759;28;20056;-77
2022/01/09 11:43:13;;;;;;;2.53;2.00;;;3.00;99.90;;;;;;5075502;28;20041;-77
2022/01/09 11:45:45;;;;;;;2.63;1.90;;;3.10;99.90;;;;;;5075168;28;20461;-77
2022/01/09 11:48:14;;;;;;;3.83;2.33;;;3.10;99.90;;;;;;5076146;28;20055;-76
2022/01/09 11:51:16;;;;;;;4.03;2.67;;;3.20;99.90;;;;;;5076374;28;20125;-77
2022/01/09 11:54:16;;;;;;;5.35;3.55;;;3.20;99.90;;;;;;5075021;28;20049;-78
2022/01/09 11:57:00;;;;;;;3.93;2.20;;;3.20;99.90;;;;;;5030428;28;20386;-77
2022/01/09 11:59:31;;;;;;;5.17;2.77;;;3.10;99.90;;;;;;5074996;28;20048;-76
2022/01/09 12:02:00;;;;;;;2.03;1.83;;;3.10;99.90;;;;;;5075014;28;20048;-77
2022/01/09 12:04:56;;;;;;;4.20;3.10;;;3.20;99.90;;;;;;5074159;28;20048;-77
2022/01/09 12:08:04;;;;;;;8.10;2.07;;;3.30;99.90;;;;;;5074537;28;20059;-76
2022/01/09 12:10:37;;;;;;;5.53;2.57;;;3.20;99.90;;;;;;5074428;28;20481;-75
2022/01/09 12:13:05;;;;;;;3.50;1.77;;;3.10;99.90;;;;;;5074517;28;20396;-77
2022/01/09 12:15:40;;;;;;;3.20;2.90;;;3.20;99.90;;;;;;5073964;28;20052;-76
2022/01/09 12:18:08;;;;;;;4.50;4.10;;;3.20;99.90;;;;;;5074159;28;20041;-77
2022/01/09 12:20:43;;;;;;;6.53;5.93;;;3.30;99.90;;;;;;5074855;28;20049;-76
2022/01/09 12:23:21;;;;;;;7.47;5.33;;;3.20;99.90;;;;;;5074615;28;20048;-77
2022/01/09 12:25:54;;;;;;;5.23;3.80;;;3.30;99.90;;;;;;5073912;28;20045;-76
2022/01/09 12:28:24;;;;;;;4.53;2.67;;;3.20;99.90;;;;;;5074463;28;20068;-77
2022/01/09 12:30:55;;;;;;;3.37;2.33;;;3.20;99.90;;;;;;5073877;28;20514;-78
2022/01/09 12:33:45;;;;;;;2.75;2.30;;;3.20;99.90;;;;;;5074232;28;20064;-77
2022/01/09 12:36:14;;;;;;;2.20;2.10;;;3.20;99.90;;;;;;5073861;28;20040;-77
2022/01/09 12:38:43;;;;;;;3.87;3.07;;;3.20;99.90;;;;;;5073498;28;20496;-76
2022/01/09 12:41:15;;;;;;;2.20;2.00;;;3.20;99.90;;;;;;5073964;28;20044;-77
2022/01/09 12:43:42;;;;;;;3.67;2.75;;;3.30;99.90;;;;;;5074049;28;20105;-75
2022/01/09 12:46:09;;;;;;;3.60;3.27;;;3.30;99.90;;;;;;5073094;28;20098;-76
2022/01/09 12:48:36;;;;;;;2.53;2.30;;;3.30;99.90;;;;;;5073974;28;20049;-77
2022/01/09 12:51:09;;;;;;;6.13;3.33;;;3.30;99.90;;;;;;5073670;28;20106;-76
2022/01/09 12:53:38;;;;;;;7.80;2.93;;;3.40;99.90;;;;;;5073935;28;20048;-77
2022/01/09 12:56:07;;;;;;;2.60;2.33;;;3.40;99.90;;;;;;5073024;28;20040;-75
2022/01/09 12:58:37;;;;;;;4.83;2.90;;;3.40;99.90;;;;;;5073291;28;20536;-76
2022/01/09 13:01:06;;;;;;;3.43;2.63;;;3.40;99.90;;;;;;5073573;28;20114;-77